sensor_id;sensor_type;location;lat;lon;timestamp;pressure;altitude;pressure_sealevel;temperature;humidity
56420;BME280;42323;52.170;7.538;2023-08-20T00:02:10;101674.63;;;17.32;100.00
56420;BME280;42323;52.170;7.538;2023-08-20T00:04:37;101675.81;;;17.29;100.00
56420;BME280;42323;52.170;7.538;2023-08-20T00:07:03;101677.00;;;17.26;100.00
56420;BME280;42323;52.170;7.538;2023-08-20T00:09:30;101673.94;;;17.23;100.00
56420;BME280;42323;52.170;7.538;2023-08-20T00:11:56;101667.41;;;17.19;100.00
56420;BME280;42323;52.170;7.538;2023-08-20T00:14:51;101667.97;;;17.14;100.00
56420;BME280;42323;52.170;7.538;2023-08-20T00:17:09;101668.53;;;17.10;100.00
56420;BME280;42323;52.170;7.538;2023-08-20T00:19:36;101673.22;;;17.08;100.00
56420;BME280;42323;52.170;7.538;2023-08-20T00:22:02;101669.56;;;17.09;100.00
56420;BME280;42323;52.170;7.538;2023-08-20T00:24:29;101673.22;;;17.08;100.00
56420;BME280;42323;52.170;7.538;2023-08-20T00:26:55;101678.88;;;17.04;100.00
56420;BME280;42323;52.170;7.538;2023-08-20T00:29:22;101676.00;;;16.99;100.00
56420;BME280;42323;52.170;7.538;2023-08-20T00:31:48;101680.25;;;16.94;100.00
56420;BME280;42323;52.170;7.538;2023-08-20T00:34:14;101681.28;;;16.93;100.00
56420;BME280;42323;52.170;7.538;2023-08-20T00:36:41;101676.16;;;16.91;100.00
56420;BME280;42323;52.170;7.538;2023-08-20T00:39:08;101675.72;;;16.88;100.00
56420;BME280;42323;52.170;7.538;2023-08-20T00:41:34;101680.19;;;16.87;100.00
56420;BME280;42323;52.170;7.538;2023-08-20T00:44:00;101682.22;;;16.85;100.00
56420;BME280;42323;52.170;7.538;2023-08-20T00:46:27;101683.59;;;16.81;100.00
56420;BME280;42323;52.170;7.538;2023-08-20T00:48:53;101695.22;;;16.80;100.00
56420;BME280;42323;52.170;7.538;2023-08-20T00:51:19;101698.03;;;16.78;100.00
56420;BME280;42323;52.170;7.538;2023-08-20T00:53:46;101697.88;;;16.80;100.00
56420;BME280;42323;52.170;7.538;2023-08-20T00:56:12;101691.94;;;16.78;100.00
56420;BME280;42323;52.170;7.538;2023-08-20T00:58:39;101691.94;;;16.78;100.00
56420;BME280;42323;52.170;7.538;2023-08-20T01:01:05;101692.50;;;16.73;100.00
56420;BME280;42323;52.170;7.538;2023-08-20T01:03:32;101703.09;;;16.73;100.00
56420;BME280;42323;52.170;7.538;2023-08-20T01:06:06;101696.31;;;16.71;100.00
56420;BME280;42323;52.170;7.538;2023-08-20T01:08:40;101697.53;;;16.68;100.00
56420;BME280;42323;52.170;7.538;2023-08-20T01:11:10;101700.53;;;16.65;100.00
56420;BME280;42323;52.170;7.538;2023-08-20T01:13:38;101701.75;;;16.63;100.00
56420;BME280;42323;52.170;7.538;2023-08-20T01:16:05;101701.31;;;16.59;100.00
56420;BME280;42323;52.170;7.538;2023-08-20T01:18:31;101703.31;;;16.57;100.00
56420;BME280;42323;52.170;7.538;2023-08-20T01:20:58;101702.31;;;16.58;100.00
56420;BME280;42323;52.170;7.538;2023-08-20T01:28:27;101684.97;;;16.55;100.00
56420;BME280;42323;52.170;7.538;2023-08-20T01:31:00;101695.75;;;16.54;100.00
56420;BME280;42323;52.170;7.538;2023-08-20T01:33:27;101701.63;;;16.49;100.00
56420;BME280;42323;52.170;7.538;2023-08-20T01:35:54;101707.44;;;16.45;100.00
56420;BME280;42323;52.170;7.538;2023-08-20T01:38:21;101709.72;;;16.48;100.00
56420;BME280;42323;52.170;7.538;2023-08-20T01:40:48;101714.56;;;16.44;100.00
56420;BME280;42323;52.170;7.538;2023-08-20T01:43:14;101706.84;;;16.43;100.00
56420;BME280;42323;52.170;7.538;2023-08-20T01:45:41;101710.28;;;16.43;100.00
56420;BME280;42323;52.170;7.538;2023-08-20T01:48:08;101718.44;;;16.42;100.00
56420;BME280;42323;52.170;7.538;2023-08-20T01:50:35;101717.63;;;16.41;100.00
56420;BME280;42323;52.170;7.538;2023-08-20T01:53:01;101727.91;;;16.36;100.00
56420;BME280;42323;52.170;7.538;2023-08-20T01:55:29;101723.19;;;16.31;100.00
56420;BME280;42323;52.170;7.538;2023-08-20T01:57:58;101716.09;;;16.32;100.00
56420;BME280;42323;52.170;7.538;2023-08-20T02:00:24;101712.44;;;16.33;100.00
56420;BME280;42323;52.170;7.538;2023-08-20T02:02:51;101710.59;;;16.34;100.00
56420;BME280;42323;52.170;7.538;2023-08-20T02:05:17;101725.25;;;16.36;100.00
56420;BME280;42323;52.170;7.538;2023-08-20T02:07:44;101721.00;;;16.35;100.00
56420;BME280;42323;52.170;7.538;2023-08-20T02:10:10;101719.97;;;16.36;100.00
56420;BME280;42323;52.170;7.538;2023-08-20T02:12:36;101715.13;;;16.40;100.00
56420;BME280;42323;52.170;7.538;2023-08-20T02:15:03;101722.25;;;16.39;100.00
56420;BME280;42323;52.170;7.538;2023-08-20T02:17:30;101725.34;;;16.43;100.00
56420;BME280;42323;52.170;7.538;2023-08-20T02:19:56;101720.88;;;16.43;100.00
56420;BME280;42323;52.170;7.538;2023-08-20T02:22:22;101733.91;;;16.45;100.00
56420;BME280;42323;52.170;7.538;2023-08-20T02:24:49;101731.91;;;16.47;100.00
56420;BME280;42323;52.170;7.538;2023-08-20T02:27:15;101737.00;;;16.48;100.00
56420;BME280;42323;52.170;7.538;2023-08-20T02:29:42;101753.53;;;16.50;100.00
56420;BME280;42323;52.170;7.538;2023-08-20T02:32:08;101761.25;;;16.52;100.00
56420;BME280;42323;52.170;7.538;2023-08-20T02:34:34;101756.22;;;16.57;100.00
56420;BME280;42323;52.170;7.538;2023-08-20T02:37:01;101750.38;;;16.62;100.00
56420;BME280;42323;52.170;7.538;2023-08-20T02:39:27;101760.78;;;16.63;100.00
56420;BME280;42323;52.170;7.538;2023-08-20T02:41:54;101757.69;;;16.60;100.00
56420;BME280;42323;52.170;7.538;2023-08-20T02:44:20;101754.59;;;16.56;100.00
56420;BME280;42323;52.170;7.538;2023-08-20T02:46:47;101757.03;;;16.58;100.00
56420;BME280;42323;52.170;7.538;2023-08-20T02:49:13;101752.19;;;16.61;100.00
56420;BME280;42323;52.170;7.538;2023-08-20T02:51:42;101750.19;;;16.63;100.00
56420;BME280;42323;52.170;7.538;2023-08-20T02:54:09;101746.34;;;16.66;100.00
56420;BME280;42323;52.170;7.538;2023-08-20T02:56:35;101748.81;;;16.67;100.00
56420;BME280;42323;52.170;7.538;2023-08-20T02:59:01;101744.97;;;16.70;100.00
56420;BME280;42323;52.170;7.538;2023-08-20T03:01:28;101745.97;;;16.69;100.00
56420;BME280;42323;52.170;7.538;2023-08-20T03:03:54;101741.28;;;16.71;100.00
56420;BME280;42323;52.170;7.538;2023-08-20T03:06:21;101747.59;;;16.70;100.00
56420;BME280;42323;52.170;7.538;2023-08-20T03:08:47;101743.31;;;16.69;100.00
56420;BME280;42323;52.170;7.538;2023-08-20T03:11:13;101740.88;;;16.67;100.00
56420;BME280;42323;52.170;7.538;2023-08-20T03:13:40;101748.53;;;16.62;100.00
56420;BME280;42323;52.170;7.538;2023-08-20T03:16:06;101750.75;;;16.59;100.00
56420;BME280;42323;52.170;7.538;2023-08-20T03:18:33;101747.47;;;16.56;100.00
56420;BME280;42323;52.170;7.538;2023-08-20T03:20:59;101742.53;;;16.53;100.00
56420;BME280;42323;52.170;7.538;2023-08-20T03:23:26;101741.72;;;16.53;100.00
56420;BME280;42323;52.170;7.538;2023-08-20T03:25:53;101742.94;;;16.50;100.00
56420;BME280;42323;52.170;7.538;2023-08-20T03:28:20;101743.19;;;16.55;100.00
56420;BME280;42323;52.170;7.538;2023-08-20T03:30:47;101738.09;;;16.54;100.00
56420;BME280;42323;52.170;7.538;2023-08-20T03:33:13;101721.94;;;16.49;100.00
56420;BME280;42323;52.170;7.538;2023-08-20T03:35:40;101727.63;;;16.46;100.00
56420;BME280;42323;52.170;7.538;2023-08-20T03:38:07;101724.53;;;16.42;100.00
56420;BME280;42323;52.170;7.538;2023-08-20T03:40:33;101724.91;;;16.39;100.00
56420;BME280;42323;52.170;7.538;2023-08-20T03:43:00;101722.00;;;16.34;100.00
56420;BME280;42323;52.170;7.538;2023-08-20T03:45:27;101728.47;;;16.31;100.00
56420;BME280;42323;52.170;7.538;2023-08-20T03:47:54;101723.38;;;16.30;100.00
56420;BME280;42323;52.170;7.538;2023-08-20T03:50:20;101728.22;;;16.26;100.00
56420;BME280;42323;52.170;7.538;2023-08-20T03:52:47;101740.81;;;16.24;100.00
56420;BME280;42323;52.170;7.538;2023-08-20T03:55:13;101734.06;;;16.22;100.00
56420;BME280;42323;52.170;7.538;2023-08-20T03:57:39;101727.50;;;16.18;100.00
56420;BME280;42323;52.170;7.538;2023-08-20T04:00:06;101739.09;;;16.17;100.00
56420;BME280;42323;52.170;7.538;2023-08-20T04:02:35;101735.19;;;16.13;100.00
56420;BME280;42323;52.170;7.538;2023-08-20T04:05:01;101734.09;;;16.07;100.00
56420;BME280;42323;52.170;7.538;2023-08-20T04:07:29;101739.56;;;16.05;100.00
56420;BME280;42323;52.170;7.538;2023-08-20T04:09:55;101744.22;;;16.03;100.00
56420;BME280;42323;52.170;7.538;2023-08-20T04:12:22;101740.94;;;16.01;100.00
56420;BME280;42323;52.170;7.538;2023-08-20T04:14:48;101740.94;;;16.01;100.00
56420;BME280;42323;52.170;7.538;2023-08-20T04:17:15;101734.66;;;16.02;100.00
56420;BME280;42323;52.170;7.538;2023-08-20T04:19:41;101728.72;;;16.00;100.00
56420;BME280;42323;52.170;7.538;2023-08-20T04:22:07;101727.09;;;15.99;100.00
56420;BME280;42323;52.170;7.538;2023-08-20T04:24:34;101722.16;;;15.96;100.00
56420;BME280;42323;52.170;7.538;2023-08-20T04:27:00;101723.81;;;15.97;100.00
56420;BME280;42323;52.170;7.538;2023-08-20T04:29:27;101731.72;;;15.97;100.00
56420;BME280;42323;52.170;7.538;2023-08-20T04:31:54;101739.66;;;15.97;100.00
56420;BME280;42323;52.170;7.538;2023-08-20T04:34:20;101739.22;;;15.94;100.00
56420;BME280;42323;52.170;7.538;2023-08-20T04:36:46;101744.69;;;15.92;100.00
56420;BME280;42323;52.170;7.538;2023-08-20T04:39:13;101741.59;;;15.89;100.00
56420;BME280;42323;52.170;7.538;2023-08-20T04:41:39;101754.78;;;15.89;100.00
56420;BME280;42323;52.170;7.538;2023-08-20T04:44:06;101744.78;;;15.86;84.31
56420;BME280;42323;52.170;7.538;2023-08-20T04:46:32;101753.34;;;15.86;100.00
56420;BME280;42323;52.170;7.538;2023-08-20T04:48:58;63019.00;;;15.86;100.00
56420;BME280;42323;52.170;7.538;2023-08-20T04:51:25;101757.00;;;15.85;100.00
56420;BME280;42323;52.170;7.538;2023-08-20T04:53:51;101759.28;;;15.88;100.00
56420;BME280;42323;52.170;7.538;2023-08-20T04:56:17;101757.28;;;15.90;100.00
56420;BME280;42323;52.170;7.538;2023-08-20T04:58:45;101758.72;;;15.93;100.00
56420;BME280;42323;52.170;7.538;2023-08-20T05:01:11;101765.47;;;15.95;100.00
56420;BME280;42323;52.170;7.538;2023-08-20T05:03:38;101764.47;;;15.96;100.00
56420;BME280;42323;52.170;7.538;2023-08-20T05:06:04;101767.09;;;15.96;100.00
56420;BME280;42323;52.170;7.538;2023-08-20T05:08:31;101771.38;;;15.97;100.00
56420;BME280;42323;52.170;7.538;2023-08-20T05:10:57;101772.66;;;16.01;100.00
56420;BME280;42323;52.170;7.538;2023-08-20T05:13:23;101771.13;;;16.07;100.00
56420;BME280;42323;52.170;7.538;2023-08-20T05:15:50;101770.56;;;16.12;100.00
56420;BME280;42323;52.170;7.538;2023-08-20T05:18:16;101767.38;;;16.16;100.00
56420;BME280;42323;52.170;7.538;2023-08-20T05:20:43;101771.28;;;16.20;100.00
56420;BME280;42323;52.170;7.538;2023-08-20T05:23:09;101772.72;;;16.23;100.00
56420;BME280;42323;52.170;7.538;2023-08-20T05:25:36;101769.72;;;16.26;100.00
56420;BME280;42323;52.170;7.538;2023-08-20T05:28:02;101779.28;;;16.27;100.00
56420;BME280;42323;52.170;7.538;2023-08-20T05:30:29;101775.28;;;16.31;100.00
56420;BME280;42323;52.170;7.538;2023-08-20T05:32:55;101777.19;;;16.37;100.00
56420;BME280;42323;52.170;7.538;2023-08-20T05:35:22;101781.72;;;16.43;100.00
56420;BME280;42323;52.170;7.538;2023-08-20T05:37:51;101784.63;;;16.48;100.00
56420;BME280;42323;52.170;7.538;2023-08-20T05:40:17;101791.63;;;16.56;100.00
56420;BME280;42323;52.170;7.538;2023-08-20T05:42:43;101787.63;;;16.60;100.00
56420;BME280;42323;52.170;7.538;2023-08-20T05:45:10;101786.22;;;16.64;100.00
56420;BME280;42323;52.170;7.538;2023-08-20T05:47:37;101784.84;;;16.68;100.00
56420;BME280;42323;52.170;7.538;2023-08-20T05:50:03;101795.88;;;16.72;100.00
56420;BME280;42323;52.170;7.538;2023-08-20T05:52:30;101794.91;;;16.73;100.00
56420;BME280;42323;52.170;7.538;2023-08-20T05:54:56;101790.88;;;16.77;100.00
56420;BME280;42323;52.170;7.538;2023-08-20T05:57:23;101794.84;;;16.88;100.00
56420;BME280;42323;52.170;7.538;2023-08-20T05:59:49;101790.25;;;16.96;100.00
56420;BME280;42323;52.170;7.538;2023-08-20T06:02:16;101795.63;;;17.03;100.00
56420;BME280;42323;52.170;7.538;2023-08-20T06:04:44;101796.50;;;17.10;100.00
56420;BME280;42323;52.170;7.538;2023-08-20T06:07:10;101790.63;;;17.15;100.00
56420;BME280;42323;52.170;7.538;2023-08-20T06:09:37;101790.63;;;17.15;100.00
56420;BME280;42323;52.170;7.538;2023-08-20T06:12:03;101794.00;;;17.30;100.00
56420;BME280;42323;52.170;7.538;2023-08-20T06:14:30;101791.59;;;17.35;100.00
56420;BME280;42323;52.170;7.538;2023-08-20T06:16:56;101785.53;;;17.41;100.00
56420;BME280;42323;52.170;7.538;2023-08-20T06:19:23;101781.09;;;17.48;100.00
56420;BME280;42323;52.170;7.538;2023-08-20T06:21:49;101789.72;;;17.57;100.00
56420;BME280;42323;52.170;7.538;2023-08-20T06:24:15;101782.44;;;17.66;100.00
56420;BME280;42323;52.170;7.538;2023-08-20T06:26:42;101785.34;;;17.71;100.00
56420;BME280;42323;52.170;7.538;2023-08-20T06:29:10;101787.88;;;17.79;100.00
56420;BME280;42323;52.170;7.538;2023-08-20T06:31:36;101792.19;;;17.87;100.00
56420;BME280;42323;52.170;7.538;2023-08-20T06:34:03;101789.38;;;17.95;100.00
56420;BME280;42323;52.170;7.538;2023-08-20T06:36:30;101785.53;;;18.04;100.00
56420;BME280;42323;52.170;7.538;2023-08-20T06:38:56;101794.16;;;18.13;100.00
56420;BME280;42323;52.170;7.538;2023-08-20T06:41:23;101799.13;;;18.22;100.00
56420;BME280;42323;52.170;7.538;2023-08-20T06:43:49;101804.44;;;18.29;100.00
56420;BME280;42323;52.170;7.538;2023-08-20T06:46:15;101798.75;;;18.39;100.00
56420;BME280;42323;52.170;7.538;2023-08-20T06:48:42;101804.69;;;18.47;100.00
56420;BME280;42323;52.170;7.538;2023-08-20T06:51:12;101803.50;;;18.56;100.00
56420;BME280;42323;52.170;7.538;2023-08-20T06:53:39;101803.94;;;18.67;100.00
56420;BME280;42323;52.170;7.538;2023-08-20T06:56:09;101809.94;;;18.75;100.00
56420;BME280;42323;52.170;7.538;2023-08-20T06:58:36;101806.88;;;18.85;100.00
56420;BME280;42323;52.170;7.538;2023-08-20T07:01:02;101811.41;;;18.91;100.00
56420;BME280;42323;52.170;7.538;2023-08-20T07:03:39;101812.84;;;19.00;100.00
56420;BME280;42323;52.170;7.538;2023-08-20T07:06:06;101809.34;;;19.07;100.00
56420;BME280;42323;52.170;7.538;2023-08-20T07:08:32;101808.53;;;19.13;100.00
56420;BME280;42323;52.170;7.538;2023-08-20T07:10:59;101802.41;;;19.19;100.00
56420;BME280;42323;52.170;7.538;2023-08-20T07:13:25;101803.84;;;19.28;100.00
56420;BME280;42323;52.170;7.538;2023-08-20T07:15:52;101809.78;;;19.37;100.00
56420;BME280;42323;52.170;7.538;2023-08-20T07:18:18;101801.38;;;19.46;100.00
56420;BME280;42323;52.170;7.538;2023-08-20T07:20:45;101811.41;;;19.58;99.78
56420;BME280;42323;52.170;7.538;2023-08-20T07:23:11;101812.22;;;19.71;99.34
56420;BME280;42323;52.170;7.538;2023-08-20T07:25:38;101808.31;;;19.80;98.77
56420;BME280;42323;52.170;7.538;2023-08-20T07:28:08;101805.22;;;19.90;98.58
56420;BME280;42323;52.170;7.538;2023-08-20T07:30:35;101809.50;;;19.98;98.49
56420;BME280;42323;52.170;7.538;2023-08-20T07:33:02;101807.44;;;20.07;98.23
56420;BME280;42323;52.170;7.538;2023-08-20T07:35:31;101812.09;;;20.18;97.25
56420;BME280;42323;52.170;7.538;2023-08-20T07:37:58;101813.50;;;20.27;96.85
56420;BME280;42323;52.170;7.538;2023-08-20T07:40:24;101811.00;;;20.32;96.99
56420;BME280;42323;52.170;7.538;2023-08-20T07:42:51;101806.25;;;20.41;96.67
56420;BME280;42323;52.170;7.538;2023-08-20T07:45:20;101808.50;;;20.50;96.23
56420;BME280;42323;52.170;7.538;2023-08-20T07:47:47;101813.00;;;20.57;96.38
56420;BME280;42323;52.170;7.538;2023-08-20T07:50:13;101807.84;;;20.62;96.39
56420;BME280;42323;52.170;7.538;2023-08-20T07:52:40;101812.69;;;20.71;96.13
56420;BME280;42323;52.170;7.538;2023-08-20T07:55:06;101810.59;;;20.80;96.10
56420;BME280;42323;52.170;7.538;2023-08-20T07:57:33;101814.03;;;20.87;96.21
56420;BME280;42323;52.170;7.538;2023-08-20T08:00:00;101820.50;;;20.98;95.79
56420;BME280;42323;52.170;7.538;2023-08-20T08:02:26;101815.72;;;21.07;95.41
56420;BME280;42323;52.170;7.538;2023-08-20T08:04:52;101822.00;;;21.19;95.15
56420;BME280;42323;52.170;7.538;2023-08-20T08:07:19;101821.91;;;21.32;95.05
56420;BME280;42323;52.170;7.538;2023-08-20T08:09:45;101817.75;;;21.43;93.69
56420;BME280;42323;52.170;7.538;2023-08-20T08:12:12;101819.09;;;21.52;92.59
56420;BME280;42323;52.170;7.538;2023-08-20T08:14:38;101817.84;;;21.54;92.25
56420;BME280;42323;52.170;7.538;2023-08-20T08:17:04;101820.44;;;21.61;92.07
56420;BME280;42323;52.170;7.538;2023-08-20T08:19:31;101818.72;;;21.67;91.71
56420;BME280;42323;52.170;7.538;2023-08-20T08:21:58;101821.50;;;21.78;91.46
56420;BME280;42323;52.170;7.538;2023-08-20T08:24:24;101820.16;;;21.88;90.39
56420;BME280;42323;52.170;7.538;2023-08-20T08:26:50;101818.63;;;21.98;90.48
56420;BME280;42323;52.170;7.538;2023-08-20T08:29:17;101825.47;;;22.13;89.34
56420;BME280;42323;52.170;7.538;2023-08-20T08:31:43;101815.06;;;22.23;88.95
56420;BME280;42323;52.170;7.538;2023-08-20T08:34:10;101808.59;;;22.31;88.46
56420;BME280;42323;52.170;7.538;2023-08-20T08:36:36;101818.53;;;22.42;88.06
56420;BME280;42323;52.170;7.538;2023-08-20T08:39:04;101810.56;;;22.53;87.52
56420;BME280;42323;52.170;7.538;2023-08-20T08:41:30;101810.84;;;22.64;87.04
56420;BME280;42323;52.170;7.538;2023-08-20T08:43:58;101817.06;;;22.88;86.23
56420;BME280;42323;52.170;7.538;2023-08-20T08:46:25;101812.22;;;22.96;84.73
56420;BME280;42323;52.170;7.538;2023-08-20T08:49:07;101811.22;;;22.97;84.11
56420;BME280;42323;52.170;7.538;2023-08-20T08:51:37;101810.50;;;23.14;83.76
56420;BME280;42323;52.170;7.538;2023-08-20T08:54:05;101810.19;;;23.34;83.26
56420;BME280;42323;52.170;7.538;2023-08-20T08:56:31;101819.06;;;23.69;82.70
56420;BME280;42323;52.170;7.538;2023-08-20T08:58:58;101820.75;;;23.99;80.88
56420;BME280;42323;52.170;7.538;2023-08-20T09:01:27;101817.41;;;24.32;79.51
56420;BME280;42323;52.170;7.538;2023-08-20T09:03:59;101815.97;;;24.53;75.90
56420;BME280;42323;52.170;7.538;2023-08-20T09:06:25;101816.34;;;24.45;76.53
56420;BME280;42323;52.170;7.538;2023-08-20T09:08:56;101826.59;;;24.36;77.81
56420;BME280;42323;52.170;7.538;2023-08-20T09:11:35;101824.84;;;24.42;76.84
56420;BME280;42323;52.170;7.538;2023-08-20T09:14:02;101823.56;;;24.44;76.41
56420;BME280;42323;52.170;7.538;2023-08-20T09:16:29;101824.28;;;24.40;76.79
56420;BME280;42323;52.170;7.538;2023-08-20T09:18:58;101827.53;;;24.42;77.24
56420;BME280;42323;52.170;7.538;2023-08-20T09:21:28;101823.88;;;24.76;74.55
56420;BME280;42323;52.170;7.538;2023-08-20T09:24:00;101821.88;;;24.84;73.80
56420;BME280;42323;52.170;7.538;2023-08-20T09:26:27;101820.16;;;24.94;73.06
56420;BME280;42323;52.170;7.538;2023-08-20T09:28:54;101818.19;;;25.18;70.80
56420;BME280;42323;52.170;7.538;2023-08-20T09:31:22;101821.97;;;25.56;67.97
56420;BME280;42323;52.170;7.538;2023-08-20T09:34:02;101813.72;;;25.80;67.68
56420;BME280;42323;52.170;7.538;2023-08-20T09:36:32;101825.59;;;25.84;68.35
56420;BME280;42323;52.170;7.538;2023-08-20T09:39:02;101828.34;;;25.89;66.67
56420;BME280;42323;52.170;7.538;2023-08-20T09:41:29;101827.63;;;25.60;67.79
56420;BME280;42323;52.170;7.538;2023-08-20T09:43:57;101830.47;;;25.31;68.42
56420;BME280;42323;52.170;7.538;2023-08-20T09:46:26;101823.97;;;24.98;69.82
56420;BME280;42323;52.170;7.538;2023-08-20T09:48:56;101836.53;;;24.64;70.95
56420;BME280;42323;52.170;7.538;2023-08-20T09:51:26;101833.72;;;24.42;71.51
56420;BME280;42323;52.170;7.538;2023-08-20T09:58:52;101827.66;;;24.92;71.26
56420;BME280;42323;52.170;7.538;2023-08-20T10:01:20;101826.88;;;25.81;68.73
56420;BME280;42323;52.170;7.538;2023-08-20T10:03:47;101804.34;;;26.48;65.22
56420;BME280;42323;52.170;7.538;2023-08-20T10:06:14;101816.81;;;27.23;63.74
56420;BME280;42323;52.170;7.538;2023-08-20T10:08:40;101819.69;;;27.96;61.11
56420;BME280;42323;52.170;7.538;2023-08-20T10:11:07;101817.50;;;28.77;57.49
56420;BME280;42323;52.170;7.538;2023-08-20T10:13:33;101813.16;;;29.27;56.13
56420;BME280;42323;52.170;7.538;2023-08-20T10:16:00;101819.13;;;29.29;56.45
56420;BME280;42323;52.170;7.538;2023-08-20T10:18:27;101815.47;;;29.84;51.94
56420;BME280;42323;52.170;7.538;2023-08-20T10:20:53;101822.34;;;30.21;48.79
56420;BME280;42323;52.170;7.538;2023-08-20T10:23:22;101813.13;;;30.66;48.13
56420;BME280;42323;52.170;7.538;2023-08-20T10:25:50;101810.22;;;31.21;46.79
56420;BME280;42323;52.170;7.538;2023-08-20T10:31:03;101802.09;;;32.36;nan
56420;BME280;42323;52.170;7.538;2023-08-20T10:33:31;101802.78;;;31.37;nan
56420;BME280;42323;52.170;7.538;2023-08-20T10:35:58;101795.47;;;31.85;nan
56420;BME280;42323;52.170;7.538;2023-08-20T10:38:35;101798.00;;;32.57;nan
56420;BME280;42323;52.170;7.538;2023-08-20T10:41:05;101799.34;;;33.20;nan
56420;BME280;42323;52.170;7.538;2023-08-20T10:43:33;101797.38;;;31.37;nan
56420;BME280;42323;52.170;7.538;2023-08-20T10:48:53;101804.53;;;30.93;nan
56420;BME280;42323;52.170;7.538;2023-08-20T10:54:06;101808.72;;;33.41;nan
56420;BME280;42323;52.170;7.538;2023-08-20T10:59:21;101809.97;;;32.56;nan
56420;BME280;42323;52.170;7.538;2023-08-20T11:01:48;101810.28;;;31.69;nan
56420;BME280;42323;52.170;7.538;2023-08-20T11:04:15;101807.81;;;32.15;nan
56420;BME280;42323;52.170;7.538;2023-08-20T11:06:42;101808.97;;;32.99;nan
56420;BME280;42323;52.170;7.538;2023-08-20T11:09:10;101803.81;;;33.71;nan
56420;BME280;42323;52.170;7.538;2023-08-20T11:11:46;101805.84;;;32.40;nan
56420;BME280;42323;52.170;7.538;2023-08-20T11:17:30;101816.03;;;30.80;nan
56420;BME280;42323;52.170;7.538;2023-08-20T11:19:56;101815.25;;;29.55;nan
56420;BME280;42323;52.170;7.538;2023-08-20T11:22:33;101813.13;;;30.27;nan
56420;BME280;42323;52.170;7.538;2023-08-20T11:25:00;101807.00;;;31.96;nan
56420;BME280;42323;52.170;7.538;2023-08-20T11:27:27;101808.72;;;32.49;nan
56420;BME280;42323;52.170;7.538;2023-08-20T11:30:00;101811.66;;;30.84;nan
56420;BME280;42323;52.170;7.538;2023-08-20T11:32:27;101815.25;;;30.69;nan
56420;BME280;42323;52.170;7.538;2023-08-20T11:34:56;101812.38;;;29.06;nan
56420;BME280;42323;52.170;7.538;2023-08-20T11:40:53;101812.97;;;27.94;nan
56420;BME280;42323;52.170;7.538;2023-08-20T11:43:21;101810.59;;;30.41;nan
56420;BME280;42323;52.170;7.538;2023-08-20T11:46:00;101802.53;;;32.24;nan
56420;BME280;42323;52.170;7.538;2023-08-20T11:49:06;101803.19;;;33.05;nan
56420;BME280;42323;52.170;7.538;2023-08-20T11:51:39;101794.03;;;33.29;nan
56420;BME280;42323;52.170;7.538;2023-08-20T11:54:10;101803.63;;;33.67;nan
56420;BME280;42323;52.170;7.538;2023-08-20T11:59:08;101801.44;;;31.34;nan
56420;BME280;42323;52.170;7.538;2023-08-20T12:01:36;101799.50;;;31.64;nan
56420;BME280;42323;52.170;7.538;2023-08-20T12:04:06;101804.06;;;31.44;nan
56420;BME280;42323;52.170;7.538;2023-08-20T12:06:34;101791.91;;;32.79;nan
56420;BME280;42323;52.170;7.538;2023-08-20T12:09:01;101805.19;;;32.48;nan
56420;BME280;42323;52.170;7.538;2023-08-20T12:11:30;101786.59;;;33.34;nan
56420;BME280;42323;52.170;7.538;2023-08-20T12:13:58;101778.13;;;33.08;nan
56420;BME280;42323;52.170;7.538;2023-08-20T12:16:25;101786.94;;;33.60;nan
56420;BME280;42323;52.170;7.538;2023-08-20T12:18:51;101792.81;;;34.04;nan
56420;BME280;42323;52.170;7.538;2023-08-20T12:21:19;101794.00;;;34.48;nan
56420;BME280;42323;52.170;7.538;2023-08-20T12:23:45;101793.22;;;33.83;nan
56420;BME280;42323;52.170;7.538;2023-08-20T12:26:12;101791.84;;;34.22;nan
56420;BME280;42323;52.170;7.538;2023-08-20T12:28:38;101791.09;;;32.08;nan
56420;BME280;42323;52.170;7.538;2023-08-20T12:31:08;101798.78;;;30.66;nan
56420;BME280;42323;52.170;7.538;2023-08-20T12:33:35;101795.56;;;32.18;nan
56420;BME280;42323;52.170;7.538;2023-08-20T12:36:04;101795.91;;;32.68;nan
56420;BME280;42323;52.170;7.538;2023-08-20T12:38:31;101785.47;;;33.90;nan
56420;BME280;42323;52.170;7.538;2023-08-20T12:41:02;101787.16;;;34.36;nan
56420;BME280;42323;52.170;7.538;2023-08-20T12:43:30;101795.50;;;34.40;nan
56420;BME280;42323;52.170;7.538;2023-08-20T12:45:57;101774.34;;;34.51;nan
56420;BME280;42323;52.170;7.538;2023-08-20T12:48:25;101777.50;;;34.75;nan
56420;BME280;42323;52.170;7.538;2023-08-20T12:50:51;101777.56;;;34.84;nan
56420;BME280;42323;52.170;7.538;2023-08-20T12:53:18;101788.16;;;34.85;nan
56420;BME280;42323;52.170;7.538;2023-08-20T12:55:45;101775.84;;;34.97;nan
56420;BME280;42323;52.170;7.538;2023-08-20T12:58:11;101781.78;;;34.90;nan
56420;BME280;42323;52.170;7.538;2023-08-20T13:00:38;101767.59;;;35.10;nan
56420;BME280;42323;52.170;7.538;2023-08-20T13:03:05;101770.66;;;34.78;nan
56420;BME280;42323;52.170;7.538;2023-08-20T13:05:32;101772.63;;;34.86;nan
56420;BME280;42323;52.170;7.538;2023-08-20T13:07:58;101772.88;;;34.76;nan
56420;BME280;42323;52.170;7.538;2023-08-20T13:10:25;101774.53;;;34.85;nan
56420;BME280;42323;52.170;7.538;2023-08-20T13:12:53;101758.81;;;35.13;nan
56420;BME280;42323;52.170;7.538;2023-08-20T13:15:21;101762.47;;;35.09;nan
56420;BME280;42323;52.170;7.538;2023-08-20T13:17:48;101766.56;;;34.89;nan
56420;BME280;42323;52.170;7.538;2023-08-20T13:20:15;101762.84;;;34.62;nan